Time;durP1;ratioP1;P1;durP2;ratioP2;P2;SDS_P1;SDS_P2;PMS_P1;PMS_P2;Temp;Humidity;BMP_temperature;BMP_pressure;BME280_temperature;BME280_humidity;BME280_pressure;Samples;Min_cycle;Max_cycle;Signal;HPM_P1;HPM_P2
2021/09/21 00:00:05;;;;;;;2.75;2.17;;;;;;;8.29;73.14;99147.23;1753441;81;21042;-42
2021/09/21 00:02:32;;;;;;;2.40;2.20;;;;;;;8.32;73.28;99146.33;1754455;81;21880;-42
2021/09/21 00:04:58;;;;;;;2.98;2.30;;;;;;;8.32;73.38;99149.02;1753999;81;21079;-42
2021/09/21 00:07:26;;;;;;;5.22;2.30;;;;;;;8.28;73.29;99149.67;1750998;80;21128;-42
2021/09/21 00:09:53;;;;;;;2.37;2.10;;;;;;;8.24;73.58;99154.20;1727707;80;21045;-42
2021/09/21 00:12:21;;;;;;;2.67;1.80;;;;;;;8.24;73.50;99154.20;1721143;83;20978;-42
2021/09/21 00:14:49;;;;;;;2.83;2.08;;;;;;;8.31;73.44;99152.85;1721191;82;21100;-42
2021/09/21 00:17:15;;;;;;;2.95;2.12;;;;;;;8.33;73.40;99153.30;1686481;85;20902;-42
2021/09/21 00:19:42;;;;;;;4.28;2.70;;;;;;;8.31;73.12;99156.91;1721163;82;21017;-42
2021/09/21 00:22:08;;;;;;;3.67;2.30;;;;;;;8.23;73.05;99158.03;1737987;82;21484;-42
2021/09/21 00:24:36;;;;;;;4.25;2.60;;;;;;;8.19;73.15;99153.68;1742864;82;20921;-42
2021/09/21 00:27:03;;;;;;;3.00;2.30;;;;;;;8.20;73.33;99145.23;1742961;82;21138;-42
2021/09/21 00:29:30;;;;;;;5.20;2.55;;;;;;;8.24;73.40;99143.41;1746915;82;21064;-42
2021/09/21 00:32:00;;;;;;;3.50;2.62;;;;;;;8.23;73.35;99147.80;1748871;82;21468;-42
2021/09/21 00:34:37;;;;;;;6.55;2.90;;;;;;;8.21;73.42;99146.81;1748503;82;21080;-42
2021/09/21 00:36:58;;;;;;;4.90;2.55;;;;;;;8.16;73.07;99151.12;1709614;83;21000;-42
2021/09/21 00:39:25;;;;;;;4.58;2.92;;;;;;;8.14;73.38;99156.08;1693076;83;21137;-42
2021/09/21 00:41:51;;;;;;;4.92;2.90;;;;;;;8.15;73.13;99152.25;1719176;82;20998;-42
2021/09/21 00:44:21;;;;;;;5.95;3.00;;;;;;;8.13;73.34;99150.45;1720571;82;20957;-42
2021/09/21 00:46:48;;;;;;;4.92;2.80;;;;;;;8.10;73.15;99158.47;1749257;82;21046;-42
2021/09/21 00:49:15;;;;;;;3.47;2.47;;;;;;;8.06;73.42;99158.95;1748003;82;20994;-42
2021/09/21 00:51:43;;;;;;;3.15;2.27;;;;;;;8.04;73.37;99154.45;1748281;82;21207;-42
2021/09/21 00:54:09;;;;;;;3.85;2.60;;;;;;;8.09;73.24;99158.25;1748819;81;21599;-42
2021/09/21 00:56:37;;;;;;;4.12;2.70;;;;;;;8.12;73.40;99162.41;1720019;81;21057;-42
2021/09/21 00:59:04;;;;;;;4.83;2.50;;;;;;;8.08;73.24;99160.75;1718927;82;20979;-42
2021/09/21 01:01:30;;;;;;;3.55;2.47;;;;;;;8.02;73.61;99161.56;1719857;82;21099;-42
2021/09/21 01:04:00;;;;;;;3.58;2.25;;;;;;;8.04;73.61;99166.04;1748085;82;20907;-42
2021/09/21 01:06:28;;;;;;;5.13;2.37;;;;;;;8.04;73.45;99168.73;1746842;81;21555;-42
2021/09/21 01:08:55;;;;;;;2.90;2.35;;;;;;;8.01;73.57;99168.66;1748280;82;21248;-42
2021/09/21 01:11:24;;;;;;;3.83;2.37;;;;;;;7.97;73.98;99163.73;1748478;81;21017;-42
2021/09/21 01:13:50;;;;;;;7.80;2.50;;;;;;;7.94;73.83;99165.20;1748411;82;21043;-42
2021/09/21 01:16:22;;;;;;;4.62;2.10;;;;;;;7.88;73.66;99165.81;1746935;80;21816;-42
2021/09/21 01:18:50;;;;;;;4.40;2.17;;;;;;;7.91;73.64;99163.20;1748301;81;21061;-42
2021/09/21 01:21:20;;;;;;;2.98;2.25;;;;;;;7.89;73.70;99160.64;1748705;81;21495;-42
2021/09/21 01:23:50;;;;;;;;;;;;;;;7.82;73.75;99157.97;1749473;81;21239;-42
2021/09/21 01:26:18;;;;;;;7.20;2.60;;;;;;;7.76;74.14;99161.25;1750995;81;20463;-42
2021/09/21 01:28:47;;;;;;;3.25;2.35;;;;;;;7.67;74.27;99163.33;1751074;81;20961;-42
2021/09/21 01:31:15;;;;;;;2.62;2.42;;;;;;;7.73;74.18;99163.30;1722177;82;20942;-42
2021/09/21 01:33:51;;;;;;;4.75;2.33;;;;;;;7.76;74.13;99156.64;1737869;82;21512;-42
2021/09/21 01:36:19;;;;;;;3.35;2.40;;;;;;;7.77;74.27;99164.97;1691893;83;21953;-42
2021/09/21 01:38:48;;;;;;;;;;;;;;;7.75;74.17;99161.81;1704585;84;21589;-42
2021/09/21 01:41:16;;;;;;;3.15;2.20;;;;;;;7.77;74.10;99161.48;1691052;84;21922;-42
2021/09/21 01:43:44;;;;;;;10.43;2.50;;;;;;;7.72;74.08;99160.38;1680632;84;20969;-42
2021/09/21 01:46:14;;;;;;;4.72;2.47;;;;;;;7.77;74.28;99158.78;1691342;82;21067;-42
2021/09/21 01:48:42;;;;;;;2.50;2.12;;;;;;;7.78;74.22;99158.44;1703207;84;22159;-42
2021/09/21 01:51:32;;;;;;;2.55;2.20;;;;;;;7.77;74.19;99164.17;1703401;84;20968;-42
2021/09/21 01:59:26;;;;;;;3.98;2.20;;;;;;;7.82;73.96;99156.62;1702895;84;20954;-42
2021/09/21 02:01:53;;;;;;;3.52;2.27;;;;;;;7.74;74.10;99156.78;1703668;84;21607;-42
2021/09/21 02:04:20;;;;;;;3.70;2.45;;;;;;;7.70;74.10;99162.06;1701697;82;21099;-42
2021/09/21 02:06:47;;;;;;;4.03;2.30;;;;;;;7.71;74.17;99154.75;1703501;84;21109;-42
2021/09/21 02:09:15;;;;;;;3.00;2.08;;;;;;;7.74;74.46;99159.48;1703248;84;22073;-42
2021/09/21 02:11:45;;;;;;;4.30;2.40;;;;;;;7.77;74.79;99161.48;1702617;84;21033;-42
2021/09/21 02:14:14;;;;;;;2.55;2.30;;;;;;;7.80;74.66;99167.52;1695324;84;21013;-42
2021/09/21 02:16:42;;;;;;;3.67;1.90;;;;;;;7.79;73.89;99168.67;1728825;82;21621;-42
2021/09/21 02:19:09;;;;;;;2.15;1.77;;;;;;;7.79;74.04;99166.73;1720099;83;21092;-42
2021/09/21 02:21:37;;;;;;;2.52;2.15;;;;;;;7.85;73.95;99169.97;1721371;82;20961;-42
2021/09/21 02:24:05;;;;;;;3.27;1.80;;;;;;;7.84;73.57;99169.77;1717002;82;21518;-42
2021/09/21 02:26:31;;;;;;;2.25;1.52;;;;;;;7.80;72.71;99168.31;1708185;83;21504;-42
2021/09/21 02:28:58;;;;;;;2.12;1.65;;;;;;;7.74;72.18;99173.77;1710615;83;21036;-42
2021/09/21 02:31:26;;;;;;;1.90;1.70;;;;;;;7.73;72.07;99174.88;1717421;83;21027;-42
2021/09/21 02:33:54;;;;;;;2.85;2.05;;;;;;;7.76;72.15;99178.23;1735506;81;21016;-42
2021/09/21 02:36:21;;;;;;;2.27;1.77;;;;;;;7.74;71.92;99172.41;1682841;83;21045;-42
2021/09/21 02:38:47;;;;;;;3.52;1.80;;;;;;;7.69;72.15;99172.66;1697442;83;21034;-42
2021/09/21 02:41:14;;;;;;;2.10;1.60;;;;;;;7.65;72.77;99175.04;1693798;84;21017;-42
2021/09/21 02:43:41;;;;;;;3.00;1.82;;;;;;;7.64;72.66;99172.12;1692886;84;21175;-42
2021/09/21 02:46:08;;;;;;;2.33;1.75;;;;;;;7.68;72.37;99168.95;1691937;84;21123;-42
2021/09/21 02:48:34;;;;;;;2.80;1.92;;;;;;;7.66;72.53;99175.23;1681166;84;20992;-42
2021/09/21 02:51:02;;;;;;;2.52;1.87;;;;;;;7.66;72.54;99179.28;1672267;84;20959;-42
2021/09/21 02:53:29;;;;;;;5.17;1.75;;;;;;;7.66;72.44;99179.28;1693786;84;21007;-42
2021/09/21 02:55:56;;;;;;;2.45;1.80;;;;;;;7.66;72.31;99177.37;1682356;83;21130;-42
2021/09/21 02:58:23;;;;;;;4.33;1.90;;;;;;;7.71;72.24;99177.69;1713580;82;21515;-42
2021/09/21 03:00:53;;;;;;;7.03;2.10;;;;;;;7.72;72.20;99176.56;1719720;81;21012;-42
2021/09/21 03:03:19;;;;;;;2.50;1.85;;;;;;;7.67;72.04;99173.55;1753225;81;21073;-42
2021/09/21 03:05:53;;;;;;;2.15;1.72;;;;;;;7.62;72.19;99171.10;1755024;81;21053;-42
2021/09/21 03:08:16;;;;;;;1.65;1.40;;;;;;;7.57;72.14;99166.52;1744490;81;21117;-42
2021/09/21 03:13:45;;;;;;;2.90;2.00;;;;;;;7.68;72.07;99172.99;1742298;82;20116;-42
2021/09/21 03:18:43;;;;;;;3.22;1.87;;;;;;;7.56;72.50;99183.27;1740013;81;21030;-41
2021/09/21 03:21:11;;;;;;;3.30;1.60;;;;;;;7.54;72.57;99180.70;1738443;82;21882;-42
2021/09/21 03:23:39;;;;;;;2.62;1.70;;;;;;;7.53;72.92;99184.52;1741206;81;20990;-42
2021/09/21 03:26:07;;;;;;;2.12;1.57;;;;;;;7.57;72.94;99190.80;1741781;80;21009;-42
2021/09/21 03:28:34;;;;;;;2.60;1.92;;;;;;;7.60;72.61;99185.48;1742391;82;21053;-42
2021/09/21 03:31:03;;;;;;;3.33;2.05;;;;;;;7.55;72.71;99193.83;1742301;81;20994;-42
2021/09/21 03:33:31;;;;;;;2.35;1.72;;;;;;;7.48;72.48;99187.45;1742378;81;20977;-42
2021/09/21 03:35:58;;;;;;;4.42;1.72;;;;;;;7.48;73.01;99191.50;1742395;81;21297;-42
2021/09/21 03:38:24;;;;;;;2.70;1.60;;;;;;;7.53;73.07;99187.22;1742880;82;21001;-42
2021/09/21 03:40:50;;;;;;;5.87;1.72;;;;;;;7.56;72.83;99189.22;1702891;82;21072;-42
2021/09/21 03:43:17;;;;;;;2.30;1.80;;;;;;;7.55;72.83;99183.63;1695893;84;21557;-42
2021/09/21 03:45:44;;;;;;;2.92;1.72;;;;;;;7.48;72.48;99185.55;1693776;84;21228;-42
2021/09/21 03:48:11;;;;;;;2.02;1.75;;;;;;;7.46;72.73;99189.14;1697810;84;21634;-42
2021/09/21 03:50:38;;;;;;;2.62;1.50;;;;;;;7.46;72.48;99187.00;1738422;82;21019;-42
2021/09/21 03:53:05;;;;;;;4.40;2.10;;;;;;;7.47;72.82;99181.27;1732464;82;21005;-42
2021/09/21 03:55:33;;;;;;;5.60;1.80;;;;;;;7.46;72.91;99180.26;1744186;81;20926;-42
2021/09/21 03:57:59;;;;;;;1.95;1.42;;;;;;;7.45;72.82;99179.50;1744850;81;21121;-42
2021/09/21 04:00:27;;;;;;;2.00;1.65;;;;;;;7.46;72.69;99180.26;1738559;80;21001;-42
2021/09/21 04:02:53;;;;;;;4.05;1.85;;;;;;;7.49;72.46;99178.25;1746812;80;21021;-42
2021/09/21 04:05:19;;;;;;;2.67;1.70;;;;;;;7.49;72.28;99182.29;1737217;80;21043;-41
2021/09/21 04:07:49;;;;;;;2.45;1.70;;;;;;;7.43;72.48;99187.92;1732242;80;21045;-42
2021/09/21 04:10:14;;;;;;;4.15;1.60;;;;;;;7.35;72.69;99183.47;1742835;80;21113;-42
2021/09/21 04:12:42;;;;;;;4.25;1.60;;;;;;;7.36;72.67;99186.36;1744593;80;21698;-42
2021/09/21 04:15:12;;;;;;;2.77;1.75;;;;;;;7.42;72.92;99189.61;1748684;80;20958;-42
2021/09/21 04:17:38;;;;;;;2.27;1.67;;;;;;;7.45;72.62;99188.16;1733199;82;21071;-42
2021/09/21 04:20:07;;;;;;;5.03;1.42;;;;;;;7.45;72.93;99193.55;1744812;81;21018;-42
2021/09/21 04:22:33;;;;;;;6.47;1.50;;;;;;;7.43;72.52;99191.19;1743237;80;21104;-42
2021/09/21 04:25:03;;;;;;;1.85;1.32;;;;;;;7.43;72.70;99185.23;1707961;84;21047;-42
2021/09/21 04:27:29;;;;;;;1.50;1.40;;;;;;;7.50;72.86;99191.95;1683448;82;21031;-42
2021/09/21 04:30:00;;;;;;;1.95;1.30;;;;;;;7.56;72.47;99187.87;1745336;80;21073;-42
2021/09/21 04:32:25;;;;;;;2.17;1.60;;;;;;;7.55;72.34;99192.47;1754655;81;20986;-42
2021/09/21 04:34:51;;;;;;;2.90;1.40;;;;;;;7.55;72.35;99186.32;1703142;82;21147;-42
2021/09/21 04:37:18;;;;;;;1.47;1.27;;;;;;;7.51;72.53;99185.41;1709311;83;21056;-42
2021/09/21 04:39:45;;;;;;;2.85;1.20;;;;;;;7.53;72.72;99183.17;1710357;83;21086;-42
2021/09/21 04:42:13;;;;;;;2.52;1.20;;;;;;;7.58;72.71;99186.41;1708882;83;21039;-42
2021/09/21 04:44:40;;;;;;;2.12;1.35;;;;;;;7.58;72.03;99184.28;1700117;82;21036;-42
2021/09/21 04:47:08;;;;;;;1.60;1.40;;;;;;;7.55;71.98;99187.67;1689629;83;20941;-42
2021/09/21 04:49:36;;;;;;;2.52;1.22;;;;;;;7.49;71.79;99184.98;1680907;85;21645;-42
2021/09/21 04:52:03;;;;;;;1.45;1.25;;;;;;;7.47;72.18;99200.72;1700243;83;21021;-42
2021/09/21 04:54:30;;;;;;;1.40;1.30;;;;;;;7.53;72.22;99193.96;1710290;83;21040;-42
2021/09/21 04:56:58;;;;;;;1.10;1.00;;;;;;;7.54;71.69;99192.84;1703709;82;21037;-42
2021/09/21 04:59:26;;;;;;;1.40;1.30;;;;;;;7.50;71.79;99187.35;1705802;84;20981;-42
2021/09/21 05:01:54;;;;;;;1.37;0.90;;;;;;;7.43;71.80;99192.53;1700866;84;21140;-42
2021/09/21 05:04:20;;;;;;;3.27;1.32;;;;;;;7.42;72.06;99189.05;1657904;85;21112;-42
2021/09/21 05:06:47;;;;;;;1.87;1.30;;;;;;;7.44;72.12;99188.72;1672080;85;20997;-42
2021/09/21 05:09:15;;;;;;;2.10;1.20;;;;;;;7.45;72.39;99191.64;1673276;85;21491;-42
2021/09/21 05:11:46;;;;;;;1.80;1.20;;;;;;;7.42;72.23;99188.26;1701286;84;20972;-42
2021/09/21 05:14:14;;;;;;;1.52;1.10;;;;;;;7.39;72.53;99188.39;1692562;84;20983;-42
2021/09/21 05:16:42;;;;;;;2.40;1.42;;;;;;;7.39;72.50;99188.39;1694782;84;21642;-42
2021/09/21 05:19:13;;;;;;;5.30;1.40;;;;;;;7.46;72.39;99187.00;1710306;83;21043;-42
2021/09/21 05:21:42;;;;;;;1.85;1.20;;;;;;;7.48;72.33;99189.59;1757382;81;21010;-42
2021/09/21 05:24:09;;;;;;;1.70;1.35;;;;;;;7.43;72.26;99190.63;1763116;81;21129;-42
2021/09/21 05:26:37;;;;;;;2.17;1.30;;;;;;;7.42;72.43;99195.00;1763740;81;20930;-42
2021/09/21 05:29:04;;;;;;;2.90;1.40;;;;;;;7.41;72.18;99186.13;1752175;81;21027;-42
2021/09/21 05:31:31;;;;;;;2.27;1.62;;;;;;;7.46;72.46;99185.66;1755181;81;20970;-42
2021/09/21 05:34:00;;;;;;;5.20;1.47;;;;;;;7.47;72.17;99188.58;1758036;81;21064;-42
2021/09/21 05:36:27;;;;;;;1.47;1.20;;;;;;;7.45;72.16;99189.50;1763453;81;21114;-42
2021/09/21 05:38:53;;;;;;;2.00;1.20;;;;;;;7.41;72.35;99190.17;1756194;81;20977;-42
2021/09/21 05:41:20;;;;;;;1.50;1.10;;;;;;;7.45;72.66;99189.50;1755447;81;21025;-42
2021/09/21 05:43:48;;;;;;;2.65;1.20;;;;;;;7.51;72.07;99185.41;1732134;80;21024;-42
2021/09/21 05:46:15;;;;;;;1.20;1.10;;;;;;;7.57;72.15;99185.40;1735373;80;21048;-42
2021/09/21 05:48:42;;;;;;;3.62;1.37;;;;;;;7.56;71.70;99187.87;1752858;81;21131;-42
2021/09/21 05:51:09;;;;;;;1.22;1.12;;;;;;;7.49;71.50;99186.34;1755654;80;21084;-42
2021/09/21 05:53:36;;;;;;;2.47;1.30;;;;;;;7.49;72.17;99189.03;1755491;81;20933;-42
2021/09/21 05:56:05;;;;;;;2.47;1.30;;;;;;;7.54;71.57;99184.74;1748390;80;20969;-42
2021/09/21 05:58:31;;;;;;;1.90;1.32;;;;;;;7.55;71.74;99180.92;1757478;80;21061;-42
2021/09/21 06:00:59;;;;;;;1.35;1.02;;;;;;;7.56;71.65;99183.82;1750188;80;20890;-42
2021/09/21 06:03:26;;;;;;;2.37;1.30;;;;;;;7.57;71.82;99186.19;1742703;80;21013;-42
2021/09/21 06:05:54;;;;;;;2.47;1.32;;;;;;;7.64;72.11;99185.05;1742995;80;21012;-42
2021/09/21 06:08:23;;;;;;;2.95;1.27;;;;;;;7.73;71.45;99177.58;1756583;79;21053;-42
2021/09/21 06:10:49;;;;;;;1.37;1.27;;;;;;;7.79;71.35;99183.52;1755880;81;20989;-42
2021/09/21 06:13:17;;;;;;;1.15;0.98;;;;;;;7.73;71.21;99166.00;1755596;81;21138;-42
2021/09/21 06:15:47;;;;;;;1.82;1.17;;;;;;;7.80;70.79;99181.02;1749101;80;21549;-42
2021/09/21 06:18:16;;;;;;;1.52;1.20;;;;;;;7.77;70.69;99179.80;1743725;80;20931;-42
2021/09/21 06:20:43;;;;;;;2.92;1.20;;;;;;;7.84;70.87;99176.52;1737666;81;21526;-42
2021/09/21 06:23:10;;;;;;;1.82;1.47;;;;;;;7.85;70.46;99179.42;1757059;81;21650;-42
2021/09/21 06:25:38;;;;;;;1.52;1.10;;;;;;;7.84;70.87;99180.57;1726658;83;21122;-42
2021/09/21 06:28:06;;;;;;;1.50;1.30;;;;;;;7.85;70.77;99180.77;1740794;81;21088;-42
2021/09/21 06:30:33;;;;;;;1.55;1.10;;;;;;;7.84;70.44;99182.68;1749863;80;21536;-42
2021/09/21 06:33:00;;;;;;;2.47;1.30;;;;;;;7.89;70.48;99182.98;1733878;81;20997;-42
2021/09/21 06:35:27;;;;;;;1.42;1.30;;;;;;;7.98;70.41;99185.55;1755067;81;21065;-42
2021/09/21 06:37:53;;;;;;;1.40;1.10;;;;;;;7.98;69.91;99184.20;1742112;80;21136;-42
2021/09/21 06:40:20;;;;;;;1.10;1.00;;;;;;;7.96;69.82;99184.55;1747024;81;21799;-42
2021/09/21 06:42:47;;;;;;;4.30;1.10;;;;;;;7.94;69.78;99185.44;1747801;80;21014;-42
2021/09/21 06:45:15;;;;;;;1.32;1.05;;;;;;;7.93;70.24;99194.69;1749527;81;21053;-42
2021/09/21 06:47:42;;;;;;;1.37;1.05;;;;;;;8.00;70.17;99196.21;1740671;80;21029;-42
2021/09/21 06:50:11;;;;;;;2.92;1.27;;;;;;;8.07;70.17;99201.81;1749922;80;21957;-42
2021/09/21 06:52:37;;;;;;;1.75;1.10;;;;;;;8.09;69.85;99203.58;1745220;80;21024;-42
2021/09/21 06:55:08;;;;;;;1.63;1.30;;;;;;;8.10;69.73;99201.67;1742484;80;21080;-42
2021/09/21 06:57:36;;;;;;;1.95;1.10;;;;;;;8.06;69.48;99209.69;1735499;80;20973;-42
2021/09/21 07:00:06;;;;;;;1.37;1.10;;;;;;;8.04;69.34;99210.58;1750179;81;20999;-42
2021/09/21 07:02:32;;;;;;;3.23;1.20;;;;;;;8.09;69.49;99206.84;1743989;80;21935;-42
2021/09/21 07:04:59;;;;;;;3.83;1.15;;;;;;;8.07;69.62;99217.22;1745294;80;21009;-42
2021/09/21 07:07:27;;;;;;;1.40;1.20;;;;;;;8.02;69.32;99212.86;1758487;80;20989;-42
2021/09/21 07:09:53;;;;;;;2.37;1.00;;;;;;;7.98;69.58;99213.34;1756294;81;21064;-42
2021/09/21 07:12:20;;;;;;;2.15;1.10;;;;;;;7.97;69.60;99214.46;1756154;81;21020;-42
2021/09/21 07:14:48;;;;;;;3.58;1.55;;;;;;;8.04;69.49;99220.03;1755085;81;21008;-42
2021/09/21 07:17:16;;;;;;;2.08;1.05;;;;;;;8.12;69.39;99219.67;1756021;81;20961;-42
2021/09/21 07:19:43;;;;;;;2.40;1.10;;;;;;;8.17;69.31;99218.07;1756490;80;22011;-42
2021/09/21 07:22:11;;;;;;;1.50;1.10;;;;;;;8.19;69.23;99224.67;1756764;81;21520;-42
2021/09/21 07:24:38;;;;;;;1.20;1.00;;;;;;;8.22;69.18;99227.27;1754989;80;21638;-42
2021/09/21 07:27:06;;;;;;;1.05;0.95;;;;;;;8.25;69.13;99223.30;1756225;81;21137;-42
2021/09/21 07:29:33;;;;;;;1.17;1.02;;;;;;;8.33;69.11;99228.92;1754666;81;21033;-42
2021/09/21 07:31:59;;;;;;;1.15;1.00;;;;;;;8.38;68.84;99229.99;1750351;80;20978;-42
2021/09/21 07:34:26;;;;;;;1.65;1.30;;;;;;;8.38;68.41;99226.73;1747957;80;21024;-42
2021/09/21 07:36:53;;;;;;;1.30;1.15;;;;;;;8.28;68.53;99222.59;1750826;80;21056;-42
2021/09/21 07:39:20;;;;;;;3.25;0.70;;;;;;;8.33;68.72;99229.69;1757715;81;21955;-42
2021/09/21 07:41:46;;;;;;;1.75;1.05;;;;;;;8.38;68.27;99234.05;1746518;81;21531;-42
2021/09/21 07:44:13;;;;;;;1.35;0.98;;;;;;;8.43;67.86;99233.78;1735831;81;20949;-42
2021/09/21 07:46:39;;;;;;;1.37;1.00;;;;;;;8.49;67.28;99235.10;1740607;81;21490;-42
2021/09/21 07:49:06;;;;;;;1.20;1.10;;;;;;;8.47;67.05;99238.73;1745141;80;21074;-42
2021/09/21 07:51:34;;;;;;;1.70;0.90;;;;;;;8.46;67.82;99239.86;1756196;80;21131;-42
2021/09/21 07:54:02;;;;;;;1.00;0.90;;;;;;;8.44;67.76;99220.50;1756694;81;21260;-42
2021/09/21 07:56:30;;;;;;;1.15;0.90;;;;;;;8.50;66.82;99235.33;1758388;81;20994;-42
2021/09/21 07:58:56;;;;;;;2.80;1.47;;;;;;;8.51;67.18;99236.91;1744318;80;21123;-42
2021/09/21 08:01:23;;;;;;;1.12;0.93;;;;;;;8.56;67.43;99233.38;1731551;81;21135;-42
2021/09/21 08:03:50;;;;;;;1.62;0.90;;;;;;;8.62;66.70;99239.28;1756072;81;21150;-42
2021/09/21 08:06:16;;;;;;;1.05;0.90;;;;;;;8.59;66.71;99236.72;1752710;81;21547;-42
2021/09/21 08:08:45;;;;;;;2.35;0.93;;;;;;;8.54;66.79;99241.60;1717148;82;21251;-42
2021/09/21 08:11:12;;;;;;;4.05;1.00;;;;;;;8.49;66.39;99233.75;1724316;82;21043;-42
2021/09/21 08:13:39;;;;;;;2.05;0.93;;;;;;;8.45;66.72;99230.97;1720509;83;21025;-42
2021/09/21 08:16:08;;;;;;;1.00;0.90;;;;;;;8.47;66.31;99231.98;1720844;83;21688;-42
2021/09/21 08:18:34;;;;;;;1.00;0.90;;;;;;;8.48;66.58;99231.61;1722847;81;20980;-42
2021/09/21 08:21:01;;;;;;;2.17;1.20;;;;;;;8.46;66.89;99238.52;1726533;82;21552;-42
2021/09/21 08:23:27;;;;;;;0.90;0.90;;;;;;;8.44;66.80;99233.45;1726367;82;20985;-42
2021/09/21 08:25:55;;;;;;;1.10;1.00;;;;;;;8.40;66.59;99232.58;1694022;83;21060;-42
2021/09/21 08:28:22;;;;;;;1.15;1.00;;;;;;;8.38;67.32;99240.80;1706232;83;21910;-42
2021/09/21 08:30:50;;;;;;;1.12;0.90;;;;;;;8.37;67.21;99237.34;1690123;84;21077;-42
2021/09/21 08:33:27;;;;;;;1.07;0.80;;;;;;;8.45;66.86;99236.94;1721409;82;21004;-43
2021/09/21 08:35:57;;;;;;;1.10;0.90;;;;;;;8.48;66.51;99241.63;1672563;83;21552;-42
2021/09/21 08:38:24;;;;;;;1.50;1.07;;;;;;;8.46;66.54;99235.81;1720082;82;21563;-42
2021/09/21 08:40:50;;;;;;;1.62;0.93;;;;;;;8.43;66.28;99229.17;1716504;82;21192;-42
2021/09/21 08:46:11;;;;;;;1.15;0.80;;;;;;;8.43;66.77;99233.78;1794995;78;22711;-42
2021/09/21 08:48:39;;;;;;;1.67;0.82;;;;;;;8.38;66.76;99235.39;1772451;80;20938;-42
2021/09/21 08:51:05;;;;;;;1.00;0.90;;;;;;;8.46;66.80;99241.22;1715908;83;21123;-42
2021/09/21 08:53:32;;;;;;;1.17;1.00;;;;;;;8.49;66.79;99235.10;1737028;82;21526;-42
2021/09/21 08:55:59;;;;;;;0.88;0.88;;;;;;;8.49;66.62;99239.95;1728018;82;21032;-42
2021/09/21 08:58:27;;;;;;;1.00;0.90;;;;;;;8.50;66.83;99250.19;1721838;82;21035;-42
2021/09/21 09:00:54;;;;;;;0.98;0.90;;;;;;;8.47;66.75;99245.49;1722763;82;20969;-42
2021/09/21 09:03:22;;;;;;;0.95;0.82;;;;;;;8.44;67.33;99255.63;1715145;82;21116;-42
2021/09/21 09:05:53;;;;;;;1.12;0.90;;;;;;;8.46;67.83;99252.81;1710821;83;20981;-42
2021/09/21 09:08:37;;;;;;;1.32;0.90;;;;;;;8.47;67.97;99257.65;1708107;82;20966;-42
2021/09/21 09:11:27;;;;;;;0.85;0.80;;;;;;;8.43;68.14;99254.05;1720014;82;21682;-42
2021/09/21 09:13:57;;;;;;;1.20;1.10;;;;;;;8.40;68.48;99257.45;1730158;82;21014;-42
2021/09/21 09:16:27;;;;;;;0.82;0.72;;;;;;;8.38;67.99;99261.05;1726769;82;21135;-42
2021/09/21 09:19:04;;;;;;;0.95;0.82;;;;;;;8.36;67.95;99268.73;1720116;82;28819;-42
2021/09/21 09:21:35;;;;;;;1.50;1.12;;;;;;;8.34;68.47;99268.28;1727612;82;21025;-42
2021/09/21 09:24:03;;;;;;;1.10;0.98;;;;;;;8.33;68.53;99265.39;1716657;82;20964;-42
2021/09/21 09:26:32;;;;;;;1.75;0.80;;;;;;;8.33;68.13;99266.15;1723650;82;21059;-42
2021/09/21 09:28:58;;;;;;;1.20;0.82;;;;;;;8.33;68.38;99269.44;1702202;84;21984;-42
2021/09/21 09:31:32;;;;;;;1.75;1.00;;;;;;;8.41;68.26;99265.78;1728286;82;20938;-42
2021/09/21 09:34:24;;;;;;;1.35;0.85;;;;;;;8.45;68.58;99262.04;1726668;82;20980;-41
2021/09/21 09:36:55;;;;;;;0.98;0.88;;;;;;;8.46;68.28;99256.86;1710116;82;21044;-41
2021/09/21 09:39:23;;;;;;;0.85;0.80;;;;;;;8.46;68.01;99262.83;1719127;82;21061;-41
2021/09/21 09:41:52;;;;;;;0.90;0.82;;;;;;;8.49;67.32;99258.86;1719544;82;21094;-41
2021/09/21 09:44:22;;;;;;;1.32;1.10;;;;;;;8.56;66.42;99256.91;1708896;83;21040;-42
2021/09/21 09:46:56;;;;;;;;;;;;;;;8.57;66.59;99259.81;1784462;80;20897;-41
2021/09/21 09:49:29;;;;;;;1.65;1.12;;;;;;;8.58;67.39;99263.52;1770279;80;20142;-41
2021/09/21 09:52:08;;;;;;;1.47;0.95;;;;;;;8.53;68.10;99268.39;1770370;80;21017;-41
2021/09/21 09:54:36;;;;;;;3.30;0.80;;;;;;;8.55;67.12;99266.14;1763368;80;21123;-41
2021/09/21 09:57:04;;;;;;;0.90;0.80;;;;;;;8.55;67.29;99267.49;1750303;81;21607;-41
2021/09/21 09:59:31;;;;;;;1.52;1.30;;;;;;;8.60;66.54;99276.13;1761057;80;21611;-41
2021/09/21 10:01:58;;;;;;;0.72;0.70;;;;;;;8.57;66.70;99265.21;1714399;83;20942;-41
2021/09/21 10:04:24;;;;;;;1.55;1.07;;;;;;;8.56;66.98;99275.83;1780981;80;21040;-41
2021/09/21 10:06:51;;;;;;;1.02;0.90;;;;;;;8.55;66.64;99266.14;1780499;80;21989;-41
2021/09/21 10:09:19;;;;;;;1.60;0.82;;;;;;;8.56;66.82;99267.16;1767621;80;21104;-41
2021/09/21 10:11:50;;;;;;;1.05;0.80;;;;;;;8.62;66.67;99269.01;1773013;80;20965;-41
2021/09/21 10:14:19;;;;;;;0.65;0.60;;;;;;;8.67;65.08;99272.80;1759755;80;20913;-41
2021/09/21 10:16:57;;;;;;;2.02;0.78;;;;;;;8.67;65.82;99268.75;1773008;80;21047;-41
2021/09/21 10:19:24;;;;;;;0.80;0.70;;;;;;;8.67;65.79;99275.50;1780256;80;21203;-41
2021/09/21 10:21:54;;;;;;;0.95;0.80;;;;;;;8.66;66.18;99275.31;1740172;82;20984;-41
2021/09/21 10:24:39;;;;;;;1.17;0.60;;;;;;;8.67;65.62;99280.91;1761038;80;21033;-41
2021/09/21 10:27:15;;;;;;;0.70;0.70;;;;;;;8.67;65.84;99277.64;1751317;82;21506;-41
2021/09/21 10:29:44;;;;;;;0.75;0.75;;;;;;;8.69;65.59;99270.55;1757116;80;21008;-41
2021/09/21 10:32:15;;;;;;;0.57;0.57;;;;;;;8.65;65.65;99274.52;1773082;80;21072;-41
2021/09/21 10:34:47;;;;;;;1.10;0.80;;;;;;;8.63;66.01;99280.04;1763108;80;21050;-41
2021/09/21 10:37:20;;;;;;;1.15;0.80;;;;;;;8.61;66.78;99280.97;1765824;80;20934;-41
2021/09/21 10:39:47;;;;;;;2.27;0.90;;;;;;;8.64;66.95;99283.75;1762004;80;20963;-41
2021/09/21 10:42:22;;;;;;;0.70;0.70;;;;;;;8.67;67.28;99290.37;1724594;80;21084;-41
2021/09/21 10:44:55;;;;;;;1.52;1.00;;;;;;;8.68;66.77;99294.64;1742273;81;21099;-42
2021/09/21 10:47:27;;;;;;;2.05;0.88;;;;;;;8.66;67.30;99302.33;1734556;81;20994;-41
2021/09/21 10:50:14;;;;;;;0.93;0.80;;;;;;;8.60;66.94;99292.34;1728991;81;21576;-41
2021/09/21 10:52:42;;;;;;;1.12;0.70;;;;;;;8.57;66.70;99301.13;1704271;83;20976;-41
2021/09/21 10:55:12;;;;;;;0.72;0.68;;;;;;;8.60;67.11;99290.20;1765002;80;21031;-41
2021/09/21 10:57:44;;;;;;;1.22;0.95;;;;;;;8.62;67.60;99299.52;1774400;80;21088;-41
2021/09/21 11:00:14;;;;;;;1.02;0.75;;;;;;;8.64;67.68;99294.56;1771187;80;20969;-41
2021/09/21 11:02:45;;;;;;;1.00;0.95;;;;;;;8.69;67.99;99296.22;1712880;82;20998;-41
2021/09/21 11:05:15;;;;;;;0.88;0.80;;;;;;;8.76;67.47;99295.06;1756933;81;20962;-41
2021/09/21 11:07:51;;;;;;;1.30;0.98;;;;;;;8.87;67.38;99294.73;1756987;81;20971;-41
2021/09/21 11:10:18;;;;;;;1.32;1.02;;;;;;;8.95;66.90;99297.85;1680677;84;21835;-41
2021/09/21 11:12:49;;;;;;;1.32;1.05;;;;;;;9.00;66.90;99298.94;1774055;80;20953;-41
2021/09/21 11:15:20;;;;;;;1.82;1.10;;;;;;;9.03;66.90;99292.82;1765633;80;21536;-41
2021/09/21 11:17:48;;;;;;;1.00;0.72;;;;;;;9.09;66.52;99297.40;1765460;81;21026;-41
2021/09/21 11:20:16;;;;;;;0.98;0.75;;;;;;;9.13;66.26;99293.64;1765082;81;21317;-41
2021/09/21 11:22:50;;;;;;;1.90;0.85;;;;;;;9.21;65.63;99288.38;1769719;80;21131;-41
2021/09/21 11:25:16;;;;;;;1.07;0.80;;;;;;;9.27;66.20;99291.03;1751102;80;21010;-41
2021/09/21 11:27:43;;;;;;;0.88;0.80;;;;;;;9.31;66.19;99293.25;1748473;82;21050;-41
2021/09/21 11:30:13;;;;;;;1.80;0.80;;;;;;;9.31;66.12;99297.31;1748710;82;21082;-41
2021/09/21 11:32:42;;;;;;;2.00;0.85;;;;;;;9.26;66.18;99301.07;1749168;82;20962;-41
2021/09/21 11:35:15;;;;;;;0.60;0.60;;;;;;;9.26;66.18;99301.07;1753519;80;21149;-41
2021/09/21 11:37:50;;;;;;;0.85;0.78;;;;;;;9.28;65.66;99292.61;1754386;80;21018;-41
2021/09/21 11:40:31;;;;;;;0.88;0.68;;;;;;;9.24;66.06;99307.98;1743105;82;20953;-41
2021/09/21 11:43:01;;;;;;;1.35;0.72;;;;;;;9.12;66.16;99315.05;1736922;80;21539;-42
2021/09/21 11:45:28;;;;;;;1.40;0.82;;;;;;;8.95;66.27;99309.23;1768899;80;21054;-41
2021/09/21 11:47:55;;;;;;;1.30;0.80;;;;;;;8.89;66.80;99316.02;1779305;80;21175;-41
2021/09/21 11:50:26;;;;;;;0.85;0.78;;;;;;;8.84;66.49;99320.34;1779171;80;21078;-41
2021/09/21 11:52:56;;;;;;;1.30;1.00;;;;;;;8.82;66.93;99326.08;1739790;82;21516;-41
2021/09/21 11:55:26;;;;;;;0.98;0.93;;;;;;;8.80;66.88;99322.96;1744619;81;20972;-41
2021/09/21 11:57:54;;;;;;;1.22;1.02;;;;;;;8.78;66.47;99323.86;1746795;82;21064;-41
2021/09/21 12:00:27;;;;;;;1.40;1.00;;;;;;;8.70;66.60;99329.67;1746814;82;21126;-41